sensor_id;sensor_type;location;lat;lon;timestamp;temperature;humidity
24772;DHT22;12870;52.274;9.754;2022-09-02T00:01:48;13.80;99.90
24772;DHT22;12870;52.274;9.754;2022-09-02T00:04:20;13.80;99.90
24772;DHT22;12870;52.274;9.754;2022-09-02T00:06:48;13.70;99.90
24772;DHT22;12870;52.274;9.754;2022-09-02T00:09:15;13.70;99.90
24772;DHT22;12870;52.274;9.754;2022-09-02T00:11:42;13.70;99.90
24772;DHT22;12870;52.274;9.754;2022-09-02T00:14:12;13.60;99.90
24772;DHT22;12870;52.274;9.754;2022-09-02T00:16:39;13.60;99.90
24772;DHT22;12870;52.274;9.754;2022-09-02T00:19:06;13.60;99.90
24772;DHT22;12870;52.274;9.754;2022-09-02T00:21:33;13.50;99.90
24772;DHT22;12870;52.274;9.754;2022-09-02T00:24:01;13.50;99.90
24772;DHT22;12870;52.274;9.754;2022-09-02T00:26:26;13.40;99.90
24772;DHT22;12870;52.274;9.754;2022-09-02T00:28:53;13.30;99.90
24772;DHT22;12870;52.274;9.754;2022-09-02T00:31:19;13.20;99.90
24772;DHT22;12870;52.274;9.754;2022-09-02T00:33:45;13.20;99.90
24772;DHT22;12870;52.274;9.754;2022-09-02T00:36:12;13.20;99.90
24772;DHT22;12870;52.274;9.754;2022-09-02T00:38:38;13.10;99.90
24772;DHT22;12870;52.274;9.754;2022-09-02T00:41:06;13.00;99.90
24772;DHT22;12870;52.274;9.754;2022-09-02T00:46:04;13.00;99.90
24772;DHT22;12870;52.274;9.754;2022-09-02T00:48:30;12.90;99.90
24772;DHT22;12870;52.274;9.754;2022-09-02T00:50:56;12.90;99.90
24772;DHT22;12870;52.274;9.754;2022-09-02T00:53:22;12.80;99.90
24772;DHT22;12870;52.274;9.754;2022-09-02T00:55:50;12.80;99.90
24772;DHT22;12870;52.274;9.754;2022-09-02T00:58:22;12.80;99.90
24772;DHT22;12870;52.274;9.754;2022-09-02T01:00:51;12.70;99.90
24772;DHT22;12870;52.274;9.754;2022-09-02T01:03:21;12.70;99.90
24772;DHT22;12870;52.274;9.754;2022-09-02T01:05:49;12.70;99.90
24772;DHT22;12870;52.274;9.754;2022-09-02T01:08:19;12.60;99.90
24772;DHT22;12870;52.274;9.754;2022-09-02T01:10:46;12.60;99.90
24772;DHT22;12870;52.274;9.754;2022-09-02T01:13:17;12.50;99.90
24772;DHT22;12870;52.274;9.754;2022-09-02T01:15:53;12.50;99.90
24772;DHT22;12870;52.274;9.754;2022-09-02T01:18:22;12.50;99.90
24772;DHT22;12870;52.274;9.754;2022-09-02T01:20:50;12.40;99.90
24772;DHT22;12870;52.274;9.754;2022-09-02T01:23:16;12.40;99.90
24772;DHT22;12870;52.274;9.754;2022-09-02T01:25:43;12.40;99.90
24772;DHT22;12870;52.274;9.754;2022-09-02T01:28:12;12.40;99.90
24772;DHT22;12870;52.274;9.754;2022-09-02T01:30:41;12.30;99.90
24772;DHT22;12870;52.274;9.754;2022-09-02T01:33:07;12.30;99.90
24772;DHT22;12870;52.274;9.754;2022-09-02T01:35:34;12.30;99.90
24772;DHT22;12870;52.274;9.754;2022-09-02T01:38:00;12.30;99.90
24772;DHT22;12870;52.274;9.754;2022-09-02T01:40:29;12.30;99.90
24772;DHT22;12870;52.274;9.754;2022-09-02T01:43:22;12.20;99.90
24772;DHT22;12870;52.274;9.754;2022-09-02T01:45:50;12.20;99.90
24772;DHT22;12870;52.274;9.754;2022-09-02T01:48:17;12.20;99.90
24772;DHT22;12870;52.274;9.754;2022-09-02T01:50:47;12.20;99.90
24772;DHT22;12870;52.274;9.754;2022-09-02T01:53:14;12.10;99.90
24772;DHT22;12870;52.274;9.754;2022-09-02T01:55:40;12.20;99.90
24772;DHT22;12870;52.274;9.754;2022-09-02T01:58:06;12.20;99.90
24772;DHT22;12870;52.274;9.754;2022-09-02T02:00:32;12.20;99.90
24772;DHT22;12870;52.274;9.754;2022-09-02T02:02:58;12.30;99.90
24772;DHT22;12870;52.274;9.754;2022-09-02T02:05:24;12.40;99.90
24772;DHT22;12870;52.274;9.754;2022-09-02T02:07:50;12.40;99.90
24772;DHT22;12870;52.274;9.754;2022-09-02T02:10:18;12.50;99.90
24772;DHT22;12870;52.274;9.754;2022-09-02T02:12:44;12.50;99.90
24772;DHT22;12870;52.274;9.754;2022-09-02T02:15:14;12.50;99.90
24772;DHT22;12870;52.274;9.754;2022-09-02T02:17:40;12.50;99.90
24772;DHT22;12870;52.274;9.754;2022-09-02T02:20:07;12.50;99.90
24772;DHT22;12870;52.274;9.754;2022-09-02T02:22:34;12.50;99.90
24772;DHT22;12870;52.274;9.754;2022-09-02T02:25:00;12.50;99.90
24772;DHT22;12870;52.274;9.754;2022-09-02T02:27:26;12.40;99.90
24772;DHT22;12870;52.274;9.754;2022-09-02T02:29:51;12.40;99.90
24772;DHT22;12870;52.274;9.754;2022-09-02T02:32:18;12.30;99.90
24772;DHT22;12870;52.274;9.754;2022-09-02T02:34:45;12.30;99.90
24772;DHT22;12870;52.274;9.754;2022-09-02T02:37:11;12.30;99.90
24772;DHT22;12870;52.274;9.754;2022-09-02T02:39:39;12.20;99.90
24772;DHT22;12870;52.274;9.754;2022-09-02T02:42:05;12.20;99.90
24772;DHT22;12870;52.274;9.754;2022-09-02T02:44:31;12.10;99.90
24772;DHT22;12870;52.274;9.754;2022-09-02T02:46:57;12.00;99.90
24772;DHT22;12870;52.274;9.754;2022-09-02T02:49:23;12.00;99.90
24772;DHT22;12870;52.274;9.754;2022-09-02T02:51:51;12.00;99.90
24772;DHT22;12870;52.274;9.754;2022-09-02T02:54:18;11.90;99.90
24772;DHT22;12870;52.274;9.754;2022-09-02T02:56:44;11.90;99.90
24772;DHT22;12870;52.274;9.754;2022-09-02T02:59:10;11.90;99.90
24772;DHT22;12870;52.274;9.754;2022-09-02T03:01:36;11.80;99.90
24772;DHT22;12870;52.274;9.754;2022-09-02T03:04:02;11.80;99.90
24772;DHT22;12870;52.274;9.754;2022-09-02T03:06:28;11.80;99.90
24772;DHT22;12870;52.274;9.754;2022-09-02T03:08:54;11.70;99.90
24772;DHT22;12870;52.274;9.754;2022-09-02T03:11:21;11.70;99.90
24772;DHT22;12870;52.274;9.754;2022-09-02T03:13:49;11.70;99.90
24772;DHT22;12870;52.274;9.754;2022-09-02T03:16:15;11.60;99.90
24772;DHT22;12870;52.274;9.754;2022-09-02T03:18:41;11.60;99.90
24772;DHT22;12870;52.274;9.754;2022-09-02T03:21:07;11.50;99.90
24772;DHT22;12870;52.274;9.754;2022-09-02T03:23:34;11.50;99.90
24772;DHT22;12870;52.274;9.754;2022-09-02T03:26:00;11.50;99.90
24772;DHT22;12870;52.274;9.754;2022-09-02T03:28:26;11.40;99.90
24772;DHT22;12870;52.274;9.754;2022-09-02T03:30:51;11.40;99.90
24772;DHT22;12870;52.274;9.754;2022-09-02T03:33:17;11.40;99.90
24772;DHT22;12870;52.274;9.754;2022-09-02T03:35:43;11.30;99.90
24772;DHT22;12870;52.274;9.754;2022-09-02T03:38:10;11.30;99.90
24772;DHT22;12870;52.274;9.754;2022-09-02T03:40:37;11.30;99.90
24772;DHT22;12870;52.274;9.754;2022-09-02T03:43:04;11.30;99.90
24772;DHT22;12870;52.274;9.754;2022-09-02T03:45:30;11.20;99.90
24772;DHT22;12870;52.274;9.754;2022-09-02T03:47:56;11.10;99.90
24772;DHT22;12870;52.274;9.754;2022-09-02T03:50:29;11.10;99.90
24772;DHT22;12870;52.274;9.754;2022-09-02T03:52:56;11.10;99.90
24772;DHT22;12870;52.274;9.754;2022-09-02T03:55:23;11.00;99.90
24772;DHT22;12870;52.274;9.754;2022-09-02T03:57:49;11.00;99.90
24772;DHT22;12870;52.274;9.754;2022-09-02T04:00:17;11.00;99.90
24772;DHT22;12870;52.274;9.754;2022-09-02T04:02:44;11.00;99.90
24772;DHT22;12870;52.274;9.754;2022-09-02T04:05:10;10.90;99.90
24772;DHT22;12870;52.274;9.754;2022-09-02T04:07:37;10.90;99.90
24772;DHT22;12870;52.274;9.754;2022-09-02T04:10:03;10.90;99.90
24772;DHT22;12870;52.274;9.754;2022-09-02T04:12:29;10.90;99.90
24772;DHT22;12870;52.274;9.754;2022-09-02T04:14:55;10.90;99.90
24772;DHT22;12870;52.274;9.754;2022-09-02T04:17:20;10.80;99.90
24772;DHT22;12870;52.274;9.754;2022-09-02T04:19:46;10.80;99.90
24772;DHT22;12870;52.274;9.754;2022-09-02T04:22:12;10.80;99.90
24772;DHT22;12870;52.274;9.754;2022-09-02T04:24:37;10.80;99.90
24772;DHT22;12870;52.274;9.754;2022-09-02T04:27:03;10.80;99.90
24772;DHT22;12870;52.274;9.754;2022-09-02T04:29:29;10.80;99.90
24772;DHT22;12870;52.274;9.754;2022-09-02T04:31:56;10.70;99.90
24772;DHT22;12870;52.274;9.754;2022-09-02T04:34:22;10.70;99.90
24772;DHT22;12870;52.274;9.754;2022-09-02T04:36:47;10.70;99.90
24772;DHT22;12870;52.274;9.754;2022-09-02T04:39:13;10.70;99.90
24772;DHT22;12870;52.274;9.754;2022-09-02T04:41:39;10.70;99.90
24772;DHT22;12870;52.274;9.754;2022-09-02T04:44:05;10.70;99.90
24772;DHT22;12870;52.274;9.754;2022-09-02T04:46:32;10.70;99.90
24772;DHT22;12870;52.274;9.754;2022-09-02T04:48:58;10.70;99.90
24772;DHT22;12870;52.274;9.754;2022-09-02T04:51:25;10.70;99.90
24772;DHT22;12870;52.274;9.754;2022-09-02T04:53:52;10.70;99.90
24772;DHT22;12870;52.274;9.754;2022-09-02T04:56:22;10.70;99.90
24772;DHT22;12870;52.274;9.754;2022-09-02T04:58:48;10.70;99.90
24772;DHT22;12870;52.274;9.754;2022-09-02T05:01:27;10.70;99.90
24772;DHT22;12870;52.274;9.754;2022-09-02T05:03:54;10.70;99.90
24772;DHT22;12870;52.274;9.754;2022-09-02T05:06:23;10.80;99.90
24772;DHT22;12870;52.274;9.754;2022-09-02T05:08:51;10.80;99.90
24772;DHT22;12870;52.274;9.754;2022-09-02T05:11:23;10.80;99.90
24772;DHT22;12870;52.274;9.754;2022-09-02T05:13:54;10.80;99.90
24772;DHT22;12870;52.274;9.754;2022-09-02T05:16:32;10.90;99.90
24772;DHT22;12870;52.274;9.754;2022-09-02T05:19:02;10.90;99.90
24772;DHT22;12870;52.274;9.754;2022-09-02T05:21:28;11.00;99.90
24772;DHT22;12870;52.274;9.754;2022-09-02T05:23:57;11.10;99.90
24772;DHT22;12870;52.274;9.754;2022-09-02T05:26:23;11.10;99.90
24772;DHT22;12870;52.274;9.754;2022-09-02T05:28:49;11.10;99.90
24772;DHT22;12870;52.274;9.754;2022-09-02T05:31:17;11.20;99.90
24772;DHT22;12870;52.274;9.754;2022-09-02T05:33:44;11.30;99.90
24772;DHT22;12870;52.274;9.754;2022-09-02T05:36:18;11.40;99.90
24772;DHT22;12870;52.274;9.754;2022-09-02T05:38:45;11.40;99.90
24772;DHT22;12870;52.274;9.754;2022-09-02T05:41:13;11.50;99.90
24772;DHT22;12870;52.274;9.754;2022-09-02T05:43:41;11.60;99.90
24772;DHT22;12870;52.274;9.754;2022-09-02T05:46:10;11.70;99.90
24772;DHT22;12870;52.274;9.754;2022-09-02T05:48:38;11.80;99.90
24772;DHT22;12870;52.274;9.754;2022-09-02T05:51:22;11.90;99.90
24772;DHT22;12870;52.274;9.754;2022-09-02T05:53:51;12.10;99.90
24772;DHT22;12870;52.274;9.754;2022-09-02T05:56:17;12.10;99.90
24772;DHT22;12870;52.274;9.754;2022-09-02T05:58:43;12.30;99.90
24772;DHT22;12870;52.274;9.754;2022-09-02T06:01:10;12.40;99.90
24772;DHT22;12870;52.274;9.754;2022-09-02T06:03:37;12.50;99.90
24772;DHT22;12870;52.274;9.754;2022-09-02T06:06:03;12.60;99.90
24772;DHT22;12870;52.274;9.754;2022-09-02T06:08:30;12.70;99.90
24772;DHT22;12870;52.274;9.754;2022-09-02T06:10:55;12.90;99.90
24772;DHT22;12870;52.274;9.754;2022-09-02T06:13:21;13.00;99.90
24772;DHT22;12870;52.274;9.754;2022-09-02T06:15:50;13.10;99.90
24772;DHT22;12870;52.274;9.754;2022-09-02T06:18:16;13.20;99.90
24772;DHT22;12870;52.274;9.754;2022-09-02T06:20:44;13.30;99.90
24772;DHT22;12870;52.274;9.754;2022-09-02T06:23:10;13.40;99.90
24772;DHT22;12870;52.274;9.754;2022-09-02T06:25:40;13.60;99.90
24772;DHT22;12870;52.274;9.754;2022-09-02T06:28:07;13.70;99.90
24772;DHT22;12870;52.274;9.754;2022-09-02T06:30:33;13.80;99.90
24772;DHT22;12870;52.274;9.754;2022-09-02T06:32:59;13.80;99.90
24772;DHT22;12870;52.274;9.754;2022-09-02T06:35:27;13.90;99.90
24772;DHT22;12870;52.274;9.754;2022-09-02T06:37:53;14.00;99.90
24772;DHT22;12870;52.274;9.754;2022-09-02T06:40:19;14.00;99.90
24772;DHT22;12870;52.274;9.754;2022-09-02T06:42:44;14.10;99.90
24772;DHT22;12870;52.274;9.754;2022-09-02T06:45:10;14.20;99.90
24772;DHT22;12870;52.274;9.754;2022-09-02T06:47:36;14.30;99.90
24772;DHT22;12870;52.274;9.754;2022-09-02T06:50:02;14.40;99.90
24772;DHT22;12870;52.274;9.754;2022-09-02T06:52:28;14.50;99.90
24772;DHT22;12870;52.274;9.754;2022-09-02T06:54:54;14.60;99.90
24772;DHT22;12870;52.274;9.754;2022-09-02T06:57:20;14.70;99.90
24772;DHT22;12870;52.274;9.754;2022-09-02T06:59:46;14.80;99.90
24772;DHT22;12870;52.274;9.754;2022-09-02T07:02:12;14.90;99.90
24772;DHT22;12870;52.274;9.754;2022-09-02T07:04:39;15.00;99.90
24772;DHT22;12870;52.274;9.754;2022-09-02T07:07:24;15.00;99.90
24772;DHT22;12870;52.274;9.754;2022-09-02T07:09:50;15.20;99.90
24772;DHT22;12870;52.274;9.754;2022-09-02T07:12:16;15.20;99.90
24772;DHT22;12870;52.274;9.754;2022-09-02T07:14:44;15.30;99.90
24772;DHT22;12870;52.274;9.754;2022-09-02T07:17:12;15.40;99.90
24772;DHT22;12870;52.274;9.754;2022-09-02T07:19:43;15.50;99.90
24772;DHT22;12870;52.274;9.754;2022-09-02T07:22:09;15.60;99.90
24772;DHT22;12870;52.274;9.754;2022-09-02T07:24:35;15.70;99.90
24772;DHT22;12870;52.274;9.754;2022-09-02T07:27:01;15.70;99.90
24772;DHT22;12870;52.274;9.754;2022-09-02T07:29:27;15.80;99.90
24772;DHT22;12870;52.274;9.754;2022-09-02T07:31:52;15.90;99.90
24772;DHT22;12870;52.274;9.754;2022-09-02T07:34:19;16.00;99.90
24772;DHT22;12870;52.274;9.754;2022-09-02T07:36:45;16.10;99.90
24772;DHT22;12870;52.274;9.754;2022-09-02T07:39:13;16.20;99.90
24772;DHT22;12870;52.274;9.754;2022-09-02T07:41:40;16.20;99.90
24772;DHT22;12870;52.274;9.754;2022-09-02T07:44:07;16.30;99.90
24772;DHT22;12870;52.274;9.754;2022-09-02T07:46:34;16.40;99.90
24772;DHT22;12870;52.274;9.754;2022-09-02T07:49:02;16.50;99.90
24772;DHT22;12870;52.274;9.754;2022-09-02T07:51:31;16.60;99.90
24772;DHT22;12870;52.274;9.754;2022-09-02T07:53:58;16.70;99.90
24772;DHT22;12870;52.274;9.754;2022-09-02T07:56:24;16.90;99.90
24772;DHT22;12870;52.274;9.754;2022-09-02T07:58:50;17.00;99.90
24772;DHT22;12870;52.274;9.754;2022-09-02T08:01:16;17.10;99.90
24772;DHT22;12870;52.274;9.754;2022-09-02T08:03:42;17.20;99.90
24772;DHT22;12870;52.274;9.754;2022-09-02T08:06:10;17.30;99.90
24772;DHT22;12870;52.274;9.754;2022-09-02T08:08:36;17.40;99.90
24772;DHT22;12870;52.274;9.754;2022-09-02T08:11:03;17.50;99.90
24772;DHT22;12870;52.274;9.754;2022-09-02T08:13:28;17.60;99.90
24772;DHT22;12870;52.274;9.754;2022-09-02T08:15:54;17.70;99.90
24772;DHT22;12870;52.274;9.754;2022-09-02T08:18:21;17.80;99.90
24772;DHT22;12870;52.274;9.754;2022-09-02T08:20:47;17.90;99.90
24772;DHT22;12870;52.274;9.754;2022-09-02T08:23:12;18.00;99.90
24772;DHT22;12870;52.274;9.754;2022-09-02T08:25:39;18.20;99.90
24772;DHT22;12870;52.274;9.754;2022-09-02T08:28:05;18.30;99.90
24772;DHT22;12870;52.274;9.754;2022-09-02T08:30:31;18.40;99.90
24772;DHT22;12870;52.274;9.754;2022-09-02T08:32:58;18.60;99.90
24772;DHT22;12870;52.274;9.754;2022-09-02T08:35:24;18.70;99.90
24772;DHT22;12870;52.274;9.754;2022-09-02T08:37:50;18.80;99.90
24772;DHT22;12870;52.274;9.754;2022-09-02T08:40:19;18.90;99.90
24772;DHT22;12870;52.274;9.754;2022-09-02T08:42:50;19.10;99.90
24772;DHT22;12870;52.274;9.754;2022-09-02T08:48:13;19.30;99.90
24772;DHT22;12870;52.274;9.754;2022-09-02T08:50:44;19.50;99.90
24772;DHT22;12870;52.274;9.754;2022-09-02T08:53:59;19.60;99.90
24772;DHT22;12870;52.274;9.754;2022-09-02T08:56:05;19.70;99.90
24772;DHT22;12870;52.274;9.754;2022-09-02T08:58:39;20.20;99.90
24772;DHT22;12870;52.274;9.754;2022-09-02T09:06:58;21.40;99.90
24772;DHT22;12870;52.274;9.754;2022-09-02T09:17:39;22.50;99.90
24772;DHT22;12870;52.274;9.754;2022-09-02T09:20:15;22.60;99.90
24772;DHT22;12870;52.274;9.754;2022-09-02T09:22:41;22.80;99.90
24772;DHT22;12870;52.274;9.754;2022-09-02T09:25:12;22.90;99.90
24772;DHT22;12870;52.274;9.754;2022-09-02T09:27:38;22.90;99.90
24772;DHT22;12870;52.274;9.754;2022-09-02T09:30:06;23.00;99.90
24772;DHT22;12870;52.274;9.754;2022-09-02T09:32:35;22.80;99.90
24772;DHT22;12870;52.274;9.754;2022-09-02T09:35:10;22.80;99.90
24772;DHT22;12870;52.274;9.754;2022-09-02T09:37:40;22.80;99.90
24772;DHT22;12870;52.274;9.754;2022-09-02T09:40:29;22.70;99.90
24772;DHT22;12870;52.274;9.754;2022-09-02T09:45:33;22.50;99.90
24772;DHT22;12870;52.274;9.754;2022-09-02T09:53:29;22.50;99.90
24772;DHT22;12870;52.274;9.754;2022-09-02T10:01:23;22.60;99.90
24772;DHT22;12870;52.274;9.754;2022-09-02T10:08:59;23.00;99.90
24772;DHT22;12870;52.274;9.754;2022-09-02T10:11:33;23.10;99.90
24772;DHT22;12870;52.274;9.754;2022-09-02T10:14:08;23.10;99.90
24772;DHT22;12870;52.274;9.754;2022-09-02T10:35:42;25.80;94.10
24772;DHT22;12870;52.274;9.754;2022-09-02T10:38:45;26.10;94.20
24772;DHT22;12870;52.274;9.754;2022-09-02T10:41:41;26.70;93.50
24772;DHT22;12870;52.274;9.754;2022-09-02T10:57:11;28.50;85.20
24772;DHT22;12870;52.274;9.754;2022-09-02T11:04:59;29.10;78.60
24772;DHT22;12870;52.274;9.754;2022-09-02T11:07:43;28.60;75.00
24772;DHT22;12870;52.274;9.754;2022-09-02T11:10:55;28.70;78.90
24772;DHT22;12870;52.274;9.754;2022-09-02T11:13:30;29.40;75.60
24772;DHT22;12870;52.274;9.754;2022-09-02T11:16:13;30.20;76.20
24772;DHT22;12870;52.274;9.754;2022-09-02T11:21:36;31.10;67.40
24772;DHT22;12870;52.274;9.754;2022-09-02T11:24:25;31.30;65.90
24772;DHT22;12870;52.274;9.754;2022-09-02T11:32:52;33.20;59.20
24772;DHT22;12870;52.274;9.754;2022-09-02T11:35:26;32.70;56.60
24772;DHT22;12870;52.274;9.754;2022-09-02T11:43:15;30.80;56.30
24772;DHT22;12870;52.274;9.754;2022-09-02T11:51:44;32.00;55.70
24772;DHT22;12870;52.274;9.754;2022-09-02T11:54:17;32.40;52.40
24772;DHT22;12870;52.274;9.754;2022-09-02T11:56:50;33.30;52.30
24772;DHT22;12870;52.274;9.754;2022-09-02T11:59:23;33.20;49.90
24772;DHT22;12870;52.274;9.754;2022-09-02T12:02:10;33.20;48.80
24772;DHT22;12870;52.274;9.754;2022-09-02T12:04:36;33.50;50.80
24772;DHT22;12870;52.274;9.754;2022-09-02T12:17:38;33.20;50.30
24772;DHT22;12870;52.274;9.754;2022-09-02T12:20:08;32.20;49.00
24772;DHT22;12870;52.274;9.754;2022-09-02T12:22:36;31.20;49.70
24772;DHT22;12870;52.274;9.754;2022-09-02T12:25:51;31.30;50.90
24772;DHT22;12870;52.274;9.754;2022-09-02T12:33:33;32.50;49.70
24772;DHT22;12870;52.274;9.754;2022-09-02T12:36:00;33.20;49.80
24772;DHT22;12870;52.274;9.754;2022-09-02T12:38:39;33.60;49.00
24772;DHT22;12870;52.274;9.754;2022-09-02T12:48:47;32.90;47.50
24772;DHT22;12870;52.274;9.754;2022-09-02T12:51:50;31.40;47.40
24772;DHT22;12870;52.274;9.754;2022-09-02T12:54:16;31.50;50.70
24772;DHT22;12870;52.274;9.754;2022-09-02T12:56:47;31.40;48.10
24772;DHT22;12870;52.274;9.754;2022-09-02T12:59:29;30.90;47.80
24772;DHT22;12870;52.274;9.754;2022-09-02T13:26:40;31.70;46.70
24772;DHT22;12870;52.274;9.754;2022-09-02T13:32:43;29.80;48.30
24772;DHT22;12870;52.274;9.754;2022-09-02T13:34:48;29.40;49.40
24772;DHT22;12870;52.274;9.754;2022-09-02T13:37:35;28.90;50.10
24772;DHT22;12870;52.274;9.754;2022-09-02T13:42:32;28.70;51.50
24772;DHT22;12870;52.274;9.754;2022-09-02T13:45:19;29.70;51.70
24772;DHT22;12870;52.274;9.754;2022-09-02T13:47:52;30.40;51.30
24772;DHT22;12870;52.274;9.754;2022-09-02T13:50:22;30.40;50.10
24772;DHT22;12870;52.274;9.754;2022-09-02T13:53:01;30.80;51.50
24772;DHT22;12870;52.274;9.754;2022-09-02T13:55:28;30.70;49.80
24772;DHT22;12870;52.274;9.754;2022-09-02T13:58:05;29.80;49.10
24772;DHT22;12870;52.274;9.754;2022-09-02T14:00:36;29.10;49.10
24772;DHT22;12870;52.274;9.754;2022-09-02T14:03:19;28.40;50.00
24772;DHT22;12870;52.274;9.754;2022-09-02T14:05:52;28.50;51.60
24772;DHT22;12870;52.274;9.754;2022-09-02T14:08:23;28.50;50.30
24772;DHT22;12870;52.274;9.754;2022-09-02T14:10:52;28.50;50.50
24772;DHT22;12870;52.274;9.754;2022-09-02T14:13:19;28.30;50.60
24772;DHT22;12870;52.274;9.754;2022-09-02T14:15:45;28.20;51.50
24772;DHT22;12870;52.274;9.754;2022-09-02T14:21:15;28.20;50.00
24772;DHT22;12870;52.274;9.754;2022-09-02T14:23:51;27.80;50.90
24772;DHT22;12870;52.274;9.754;2022-09-02T14:26:37;27.60;51.60
24772;DHT22;12870;52.274;9.754;2022-09-02T14:29:06;27.90;52.00
24772;DHT22;12870;52.274;9.754;2022-09-02T14:31:33;28.80;52.10
24772;DHT22;12870;52.274;9.754;2022-09-02T14:34:00;28.90;50.30
24772;DHT22;12870;52.274;9.754;2022-09-02T14:36:37;28.40;49.60
24772;DHT22;12870;52.274;9.754;2022-09-02T14:39:16;28.10;49.90
24772;DHT22;12870;52.274;9.754;2022-09-02T14:41:53;27.50;50.30
24772;DHT22;12870;52.274;9.754;2022-09-02T14:46:56;26.90;50.90
24772;DHT22;12870;52.274;9.754;2022-09-02T14:49:28;26.60;51.60
24772;DHT22;12870;52.274;9.754;2022-09-02T14:52:01;26.70;51.90
24772;DHT22;12870;52.274;9.754;2022-09-02T14:54:42;26.60;51.80
24772;DHT22;12870;52.274;9.754;2022-09-02T14:57:22;26.30;52.30
24772;DHT22;12870;52.274;9.754;2022-09-02T14:59:49;26.20;52.20
24772;DHT22;12870;52.274;9.754;2022-09-02T15:04:47;25.90;53.00
24772;DHT22;12870;52.274;9.754;2022-09-02T15:07:13;26.00;53.00
24772;DHT22;12870;52.274;9.754;2022-09-02T15:09:39;26.00;53.10
24772;DHT22;12870;52.274;9.754;2022-09-02T15:12:05;25.90;53.60
24772;DHT22;12870;52.274;9.754;2022-09-02T15:14:31;25.90;54.20
24772;DHT22;12870;52.274;9.754;2022-09-02T15:17:06;25.70;53.10
24772;DHT22;12870;52.274;9.754;2022-09-02T15:19:32;25.70;53.50
24772;DHT22;12870;52.274;9.754;2022-09-02T15:21:58;25.50;53.10
24772;DHT22;12870;52.274;9.754;2022-09-02T15:24:23;25.50;53.80
24772;DHT22;12870;52.274;9.754;2022-09-02T15:26:49;25.40;54.00
24772;DHT22;12870;52.274;9.754;2022-09-02T15:29:15;25.50;54.00
24772;DHT22;12870;52.274;9.754;2022-09-02T15:31:43;25.40;53.00
24772;DHT22;12870;52.274;9.754;2022-09-02T15:34:10;25.40;54.10
24772;DHT22;12870;52.274;9.754;2022-09-02T15:36:36;25.30;53.90
24772;DHT22;12870;52.274;9.754;2022-09-02T15:39:02;25.30;54.10
24772;DHT22;12870;52.274;9.754;2022-09-02T15:41:28;25.30;54.10
24772;DHT22;12870;52.274;9.754;2022-09-02T15:43:56;25.60;54.20
24772;DHT22;12870;52.274;9.754;2022-09-02T15:46:31;26.10;53.40
24772;DHT22;12870;52.274;9.754;2022-09-02T15:49:00;26.60;53.20
24772;DHT22;12870;52.274;9.754;2022-09-02T15:51:26;27.00;53.20
24772;DHT22;12870;52.274;9.754;2022-09-02T15:53:57;27.30;52.50
24772;DHT22;12870;52.274;9.754;2022-09-02T15:56:26;27.40;51.60
24772;DHT22;12870;52.274;9.754;2022-09-02T15:58:58;27.50;51.60
24772;DHT22;12870;52.274;9.754;2022-09-02T16:01:25;27.40;50.60
24772;DHT22;12870;52.274;9.754;2022-09-02T16:03:51;27.40;51.30
24772;DHT22;12870;52.274;9.754;2022-09-02T16:06:17;27.30;51.20
24772;DHT22;12870;52.274;9.754;2022-09-02T16:08:43;26.90;50.80
24772;DHT22;12870;52.274;9.754;2022-09-02T16:11:08;26.80;51.30
24772;DHT22;12870;52.274;9.754;2022-09-02T16:13:37;26.70;50.50
24772;DHT22;12870;52.274;9.754;2022-09-02T16:16:05;26.60;51.90
24772;DHT22;12870;52.274;9.754;2022-09-02T16:18:32;26.50;51.80
24772;DHT22;12870;52.274;9.754;2022-09-02T16:20:58;26.40;51.60
24772;DHT22;12870;52.274;9.754;2022-09-02T16:23:24;26.40;51.60
24772;DHT22;12870;52.274;9.754;2022-09-02T16:28:39;26.10;51.30
24772;DHT22;12870;52.274;9.754;2022-09-02T16:31:06;25.90;51.80
24772;DHT22;12870;52.274;9.754;2022-09-02T16:33:33;25.90;51.90
24772;DHT22;12870;52.274;9.754;2022-09-02T16:35:59;25.80;52.60
24772;DHT22;12870;52.274;9.754;2022-09-02T16:38:25;25.60;52.60
24772;DHT22;12870;52.274;9.754;2022-09-02T16:40:52;25.50;52.20
24772;DHT22;12870;52.274;9.754;2022-09-02T16:43:18;25.40;52.50
24772;DHT22;12870;52.274;9.754;2022-09-02T16:45:47;25.20;52.80
24772;DHT22;12870;52.274;9.754;2022-09-02T16:48:13;25.10;52.40
24772;DHT22;12870;52.274;9.754;2022-09-02T16:50:38;24.90;52.20
24772;DHT22;12870;52.274;9.754;2022-09-02T16:53:04;24.70;52.80
24772;DHT22;12870;52.274;9.754;2022-09-02T16:55:30;24.60;53.50
24772;DHT22;12870;52.274;9.754;2022-09-02T16:57:57;24.40;53.10
24772;DHT22;12870;52.274;9.754;2022-09-02T17:00:32;24.40;53.20
24772;DHT22;12870;52.274;9.754;2022-09-02T17:03:01;24.20;54.10
24772;DHT22;12870;52.274;9.754;2022-09-02T17:05:27;24.10;53.90
24772;DHT22;12870;52.274;9.754;2022-09-02T17:07:52;23.90;54.30
24772;DHT22;12870;52.274;9.754;2022-09-02T17:10:20;23.80;54.00
24772;DHT22;12870;52.274;9.754;2022-09-02T17:12:45;23.70;54.40
24772;DHT22;12870;52.274;9.754;2022-09-02T17:15:11;23.60;54.50
24772;DHT22;12870;52.274;9.754;2022-09-02T17:17:37;23.60;54.50
24772;DHT22;12870;52.274;9.754;2022-09-02T17:20:04;23.40;54.70
24772;DHT22;12870;52.274;9.754;2022-09-02T17:22:30;23.30;54.80
24772;DHT22;12870;52.274;9.754;2022-09-02T17:24:56;23.30;55.10
24772;DHT22;12870;52.274;9.754;2022-09-02T17:27:21;23.20;55.30
24772;DHT22;12870;52.274;9.754;2022-09-02T17:29:47;23.10;55.60
24772;DHT22;12870;52.274;9.754;2022-09-02T17:32:13;23.00;55.40
24772;DHT22;12870;52.274;9.754;2022-09-02T17:34:38;22.80;55.60
24772;DHT22;12870;52.274;9.754;2022-09-02T17:37:04;22.70;55.90
24772;DHT22;12870;52.274;9.754;2022-09-02T17:39:30;22.70;55.90
24772;DHT22;12870;52.274;9.754;2022-09-02T17:41:55;22.70;55.90
24772;DHT22;12870;52.274;9.754;2022-09-02T17:44:29;22.60;56.10
24772;DHT22;12870;52.274;9.754;2022-09-02T17:47:04;22.50;56.60
24772;DHT22;12870;52.274;9.754;2022-09-02T17:49:32;22.30;57.40
24772;DHT22;12870;52.274;9.754;2022-09-02T17:51:58;22.20;57.00
24772;DHT22;12870;52.274;9.754;2022-09-02T17:54:25;22.10;57.00
24772;DHT22;12870;52.274;9.754;2022-09-02T17:57:08;22.00;57.60
24772;DHT22;12870;52.274;9.754;2022-09-02T18:00:10;21.90;57.90
24772;DHT22;12870;52.274;9.754;2022-09-02T18:05:26;21.60;58.90
24772;DHT22;12870;52.274;9.754;2022-09-02T18:08:02;21.50;59.20
24772;DHT22;12870;52.274;9.754;2022-09-02T18:10:59;21.40;59.20
24772;DHT22;12870;52.274;9.754;2022-09-02T18:13:56;21.30;59.50
24772;DHT22;12870;52.274;9.754;2022-09-02T18:16:33;21.20;59.80
24772;DHT22;12870;52.274;9.754;2022-09-02T18:27:35;20.80;60.90
24772;DHT22;12870;52.274;9.754;2022-09-02T18:30:07;20.80;61.30
24772;DHT22;12870;52.274;9.754;2022-09-02T18:43:58;20.40;63.60
24772;DHT22;12870;52.274;9.754;2022-09-02T18:46:35;20.30;63.90